Time;durP1;ratioP1;P1;durP2;ratioP2;P2;SDS_P1;SDS_P2;PMS_P1;PMS_P2;Temp;Humidity;BMP_temperature;BMP_pressure;BME280_temperature;BME280_humidity;BME280_pressure;Samples;Min_cycle;Max_cycle;Signal;HPM_P1;HPM_P2
2022/10/01 00:02:19;;;;;;;9.57;5.93;;;;;;;;;;4985786;28;20447;-81
2022/10/01 00:04:45;;;;;;;6.40;5.70;;;;;;;;;;4987417;28;20424;-81
2022/10/01 00:07:13;;;;;;;6.20;5.27;;;;;;;;;;4984555;28;20868;-81
2022/10/01 00:09:40;;;;;;;5.72;5.20;;;;;;;;;;4988087;28;20451;-81
2022/10/01 00:12:07;;;;;;;7.20;5.10;;;;;;;;;;4988543;28;20434;-83
2022/10/01 00:14:33;;;;;;;6.95;5.32;;;;;;;;;;4988959;28;20437;-80
2022/10/01 00:17:01;;;;;;;5.83;5.10;;;;;;;;;;4989327;28;20419;-81
2022/10/01 00:19:27;;;;;;;5.60;5.10;;;;;;;;;;4986890;28;20426;-81
2022/10/01 00:21:53;;;;;;;5.70;4.70;;;;;;;;;;4986282;28;20418;-82
2022/10/01 00:24:20;;;;;;;6.72;5.18;;;;;;;;;;4986222;28;20420;-81
2022/10/01 00:26:46;;;;;;;4.73;4.30;;;;;;;;;;4988909;28;20448;-81
2022/10/01 00:29:14;;;;;;;6.55;4.93;;;;;;;;;;4986711;28;20418;-81
2022/10/01 00:31:40;;;;;;;5.10;4.60;;;;;;;;;;4990596;28;20423;-81
2022/10/01 00:34:10;;;;;;;5.70;4.90;;;;;;;;;;4986808;28;20421;-82
2022/10/01 00:36:38;;;;;;;4.80;4.30;;;;;;;;;;4987141;28;20416;-81
2022/10/01 00:39:05;;;;;;;6.25;4.60;;;;;;;;;;4987323;28;20418;-81
2022/10/01 00:41:34;;;;;;;5.47;4.80;;;;;;;;;;4987724;28;20426;-81
2022/10/01 00:44:01;;;;;;;6.18;4.63;;;;;;;;;;4984529;28;20899;-81
2022/10/01 00:46:29;;;;;;;6.65;4.60;;;;;;;;;;4984445;28;20482;-82
2022/10/01 00:48:58;;;;;;;7.00;4.83;;;;;;;;;;4986487;28;20425;-82
2022/10/01 00:51:28;;;;;;;5.60;4.20;;;;;;;;;;4984982;28;20437;-81
2022/10/01 00:54:01;;;;;;;6.15;4.70;;;;;;;;;;4986704;28;21258;-81
2022/10/01 00:56:27;;;;;;;6.38;4.75;;;;;;;;;;4985913;28;20418;-82
2022/10/01 00:58:54;;;;;;;6.80;4.80;;;;;;;;;;4987218;28;20427;-82
2022/10/01 01:01:23;;;;;;;5.05;4.57;;;;;;;;;;4986445;28;20422;-81
2022/10/01 01:03:49;;;;;;;6.72;4.53;;;;;;;;;;4988677;28;20426;-81
2022/10/01 01:06:17;;;;;;;5.03;4.53;;;;;;;;;;4987090;28;20403;-82
2022/10/01 01:08:45;;;;;;;5.00;4.40;;;;;;;;;;4988422;28;20446;-82
2022/10/01 01:11:15;;;;;;;5.10;4.55;;;;;;;;;;4986498;28;20414;-81
2022/10/01 01:13:49;;;;;;;5.55;4.60;;;;;;;;;;4987632;28;20426;-80
2022/10/01 01:16:20;;;;;;;5.47;4.40;;;;;;;;;;4984439;28;20420;-81
2022/10/01 01:18:51;;;;;;;6.10;4.80;;;;;;;;;;4985875;28;20852;-81
2022/10/01 01:21:22;;;;;;;5.50;4.78;;;;;;;;;;4985978;28;20416;-80
2022/10/01 01:24:06;;;;;;;5.53;4.75;;;;;;;;;;4984589;28;20422;-82
2022/10/01 01:26:41;;;;;;;6.65;4.90;;;;;;;;;;4986381;28;20415;-81
2022/10/01 01:29:10;;;;;;;4.63;4.23;;;;;;;;;;4987857;28;20524;-81
2022/10/01 01:31:38;;;;;;;6.25;4.78;;;;;;;;;;4985233;28;20936;-81
2022/10/01 01:34:07;;;;;;;6.80;5.00;;;;;;;;;;4986132;28;20412;-81
2022/10/01 01:36:36;;;;;;;5.20;4.65;;;;;;;;;;4986526;28;21923;-81
2022/10/01 01:39:05;;;;;;;5.90;4.97;;;;;;;;;;4987486;28;20426;-81
2022/10/01 01:41:36;;;;;;;7.85;5.22;;;;;;;;;;4983741;28;20430;-80
2022/10/01 01:44:03;;;;;;;6.10;5.50;;;;;;;;;;4986002;28;20434;-82
2022/10/01 01:46:33;;;;;;;11.40;5.40;;;;;;;;;;4985176;28;20428;-82
2022/10/01 01:49:00;;;;;;;6.55;5.70;;;;;;;;;;4985359;28;20499;-81
2022/10/01 01:51:32;;;;;;;8.70;5.90;;;;;;;;;;4987387;28;20449;-80
2022/10/01 01:53:59;;;;;;;7.63;5.20;;;;;;;;;;4987899;28;20431;-81
2022/10/01 01:56:25;;;;;;;6.32;5.10;;;;;;;;;;4984677;28;20419;-81
2022/10/01 01:58:52;;;;;;;5.97;5.38;;;;;;;;;;4984530;28;20474;-81
2022/10/01 02:01:37;;;;;;;7.25;5.88;;;;;;;;;;4987474;28;20819;-81
2022/10/01 02:04:05;;;;;;;7.90;5.50;;;;;;;;;;4984212;28;20521;-82
2022/10/01 02:06:41;;;;;;;6.30;5.32;;;;;;;;;;4985245;28;20418;-81
2022/10/01 02:09:12;;;;;;;6.50;5.77;;;;;;;;;;4987322;28;20426;-82
2022/10/01 02:11:43;;;;;;;6.35;5.75;;;;;;;;;;4989647;28;20424;-81
2022/10/01 02:14:15;;;;;;;8.30;6.28;;;;;;;;;;4992275;28;20800;-81
2022/10/01 02:16:47;;;;;;;7.28;5.05;;;;;;;;;;4991904;28;21765;-81
2022/10/01 02:19:18;;;;;;;6.72;5.38;;;;;;;;;;4990142;28;20434;-81
2022/10/01 02:21:48;;;;;;;6.90;5.78;;;;;;;;;;4993408;28;20490;-81
2022/10/01 02:24:20;;;;;;;6.25;5.75;;;;;;;;;;4988591;28;20410;-81
2022/10/01 02:26:50;;;;;;;7.47;6.00;;;;;;;;;;4990203;28;20424;-81
2022/10/01 02:29:19;;;;;;;8.65;6.35;;;;;;;;;;5003398;28;20432;-82
2022/10/01 02:31:48;;;;;;;6.63;5.93;;;;;;;;;;4989436;28;20956;-81
2022/10/01 02:34:16;;;;;;;7.47;6.60;;;;;;;;;;4988898;28;20429;-81
2022/10/01 02:36:44;;;;;;;7.18;6.32;;;;;;;;;;4986746;28;20424;-82
2022/10/01 02:39:11;;;;;;;7.20;6.45;;;;;;;;;;4990698;28;20451;-82
2022/10/01 02:41:37;;;;;;;7.53;6.63;;;;;;;;;;4991256;28;20919;-81
2022/10/01 02:44:06;;;;;;;9.45;6.65;;;;;;;;;;4991090;28;20430;-81
2022/10/01 02:46:35;;;;;;;8.68;6.50;;;;;;;;;;4990505;28;20427;-82
2022/10/01 02:49:03;;;;;;;6.90;6.20;;;;;;;;;;4990695;28;20534;-81
2022/10/01 02:51:35;;;;;;;8.10;7.30;;;;;;;;;;4991516;28;20416;-81
2022/10/01 02:54:04;;;;;;;9.07;6.80;;;;;;;;;;4989815;28;20419;-81
2022/10/01 02:59:14;;;;;;;9.73;7.13;;;;;;;;;;4990823;28;20425;-81
2022/10/01 03:01:40;;;;;;;8.82;7.80;;;;;;;;;;4989349;28;20924;-82
2022/10/01 03:04:08;;;;;;;9.18;7.68;;;;;;;;;;4991774;28;20434;-82
2022/10/01 03:06:36;;;;;;;9.95;8.95;;;;;;;;;;4987567;28;20412;-82
2022/10/01 03:09:03;;;;;;;9.18;8.27;;;;;;;;;;4989504;28;20431;-82
2022/10/01 03:11:29;;;;;;;9.70;8.70;;;;;;;;;;4986652;28;20428;-82
2022/10/01 03:13:57;;;;;;;8.93;8.07;;;;;;;;;;4986317;28;20416;-81
2022/10/01 03:16:23;;;;;;;9.00;8.10;;;;;;;;;;4988079;28;20420;-84
2022/10/01 03:18:50;;;;;;;9.90;8.70;;;;;;;;;;4986766;28;20431;-82
2022/10/01 03:21:17;;;;;;;10.30;9.30;;;;;;;;;;4985525;28;20871;-82
2022/10/01 03:23:44;;;;;;;9.50;8.60;;;;;;;;;;4985369;28;20424;-82
2022/10/01 03:26:10;;;;;;;15.35;9.60;;;;;;;;;;4987417;28;20416;-81
2022/10/01 03:28:37;;;;;;;10.87;9.77;;;;;;;;;;4987134;28;20418;-81
2022/10/01 03:31:05;;;;;;;11.70;10.50;;;;;;;;;;4989114;28;20422;-82
2022/10/01 03:33:31;;;;;;;11.57;10.38;;;;;;;;;;4985187;28;20427;-82
2022/10/01 03:35:57;;;;;;;11.80;10.60;;;;;;;;;;4988727;28;20425;-83
2022/10/01 03:38:25;;;;;;;12.13;10.82;;;;;;;;;;4988524;28;20425;-81
2022/10/01 03:40:52;;;;;;;12.35;10.90;;;;;;;;;;4986553;28;20443;-82
2022/10/01 03:43:18;;;;;;;12.75;11.20;;;;;;;;;;5005844;28;20414;-82
2022/10/01 03:45:44;;;;;;;13.80;12.30;;;;;;;;;;4988379;28;20418;-82
2022/10/01 03:48:11;;;;;;;13.63;11.73;;;;;;;;;;4967820;28;20423;-82
2022/10/01 03:50:37;;;;;;;12.88;11.57;;;;;;;;;;4968453;28;20427;-82
2022/10/01 03:53:04;;;;;;;14.00;12.55;;;;;;;;;;4985583;28;20423;-81
2022/10/01 03:55:32;;;;;;;13.20;11.90;;;;;;;;;;4987038;28;20422;-83
2022/10/01 03:57:58;;;;;;;14.10;12.30;;;;;;;;;;4987281;28;20437;-81
2022/10/01 04:00:25;;;;;;;12.25;11.07;;;;;;;;;;4989401;28;20920;-81
2022/10/01 04:02:51;;;;;;;13.65;12.25;;;;;;;;;;4991015;28;20421;-81
2022/10/01 04:05:18;;;;;;;15.75;12.40;;;;;;;;;;4989299;28;20424;-82
2022/10/01 04:07:45;;;;;;;13.32;11.90;;;;;;;;;;4987091;28;20425;-82
2022/10/01 04:10:11;;;;;;;13.57;12.23;;;;;;;;;;4987730;28;20434;-83
2022/10/01 04:12:39;;;;;;;14.90;12.33;;;;;;;;;;4985677;28;20796;-82
2022/10/01 04:15:06;;;;;;;15.70;13.10;;;;;;;;;;4990750;28;20427;-81
2022/10/01 04:17:32;;;;;;;14.00;12.50;;;;;;;;;;4988093;28;20419;-81
2022/10/01 04:19:59;;;;;;;14.82;12.60;;;;;;;;;;4988194;28;20416;-81
2022/10/01 04:22:27;;;;;;;15.07;12.93;;;;;;;;;;4987016;28;20416;-81
2022/10/01 04:24:54;;;;;;;13.48;11.80;;;;;;;;;;4988591;28;20437;-81
2022/10/01 04:27:21;;;;;;;12.50;11.10;;;;;;;;;;4986363;28;20421;-82
2022/10/01 04:29:48;;;;;;;13.60;12.18;;;;;;;;;;4988423;28;20415;-82
2022/10/01 04:32:20;;;;;;;14.85;12.40;;;;;;;;;;4982489;28;20438;-82
2022/10/01 04:34:52;;;;;;;13.07;11.70;;;;;;;;;;4989335;28;20426;-82
2022/10/01 04:37:20;;;;;;;13.30;11.90;;;;;;;;;;4986720;28;20428;-88
2022/10/01 04:39:47;;;;;;;13.47;11.30;;;;;;;;;;4989404;28;20829;-83
2022/10/01 04:42:13;;;;;;;12.30;10.93;;;;;;;;;;4986830;28;20424;-81
2022/10/01 04:44:41;;;;;;;12.82;11.07;;;;;;;;;;4989835;28;20414;-81
2022/10/01 04:47:09;;;;;;;12.27;11.07;;;;;;;;;;4983415;28;20424;-82
2022/10/01 04:49:35;;;;;;;13.63;10.50;;;;;;;;;;4986615;28;20421;-82
2022/10/01 04:52:02;;;;;;;12.38;10.63;;;;;;;;;;4988005;28;20529;-81
2022/10/01 04:54:28;;;;;;;12.75;11.10;;;;;;;;;;4988662;28;20425;-81
2022/10/01 04:56:57;;;;;;;13.50;10.40;;;;;;;;;;4987124;28;20420;-81
2022/10/01 04:59:24;;;;;;;10.88;9.77;;;;;;;;;;4985762;28;20432;-81
2022/10/01 05:01:50;;;;;;;11.90;9.68;;;;;;;;;;4988411;28;20414;-82
2022/10/01 05:04:18;;;;;;;13.40;9.93;;;;;;;;;;4987117;28;20436;-81
2022/10/01 05:06:46;;;;;;;11.52;10.43;;;;;;;;;;4988059;28;20432;-82
2022/10/01 05:09:12;;;;;;;11.88;9.57;;;;;;;;;;4985420;28;20419;-82
2022/10/01 05:11:39;;;;;;;9.85;8.85;;;;;;;;;;4986703;28;20419;-81
2022/10/01 05:14:06;;;;;;;11.13;9.90;;;;;;;;;;4990007;28;20414;-82
2022/10/01 05:16:33;;;;;;;11.43;10.27;;;;;;;;;;4985962;28;20471;-81
2022/10/01 05:19:00;;;;;;;11.70;9.43;;;;;;;;;;4988316;28;20436;-81
2022/10/01 05:21:28;;;;;;;11.77;8.80;;;;;;;;;;4987637;28;20437;-81
2022/10/01 05:23:56;;;;;;;10.32;9.25;;;;;;;;;;4985344;28;20428;-81
2022/10/01 05:26:23;;;;;;;10.70;9.00;;;;;;;;;;4984976;28;20978;-82
2022/10/01 05:28:49;;;;;;;10.18;9.18;;;;;;;;;;4987076;28;20957;-82
2022/10/01 05:31:17;;;;;;;9.82;8.55;;;;;;;;;;4986575;28;20424;-82
2022/10/01 05:33:43;;;;;;;8.82;7.88;;;;;;;;;;4983704;28;20910;-82
2022/10/01 05:36:10;;;;;;;10.73;8.60;;;;;;;;;;4985629;28;20414;-82
2022/10/01 05:38:37;;;;;;;10.50;9.40;;;;;;;;;;4988032;28;20532;-81
2022/10/01 05:41:04;;;;;;;10.50;9.50;;;;;;;;;;4985998;28;20829;-82
2022/10/01 05:43:30;;;;;;;10.07;9.15;;;;;;;;;;4984922;28;20787;-83
2022/10/01 05:46:00;;;;;;;10.40;9.40;;;;;;;;;;4986502;28;20892;-82
2022/10/01 05:48:26;;;;;;;10.15;9.15;;;;;;;;;;4983280;28;20415;-81
2022/10/01 05:50:53;;;;;;;11.48;9.77;;;;;;;;;;4986042;28;20422;-82
2022/10/01 05:53:22;;;;;;;10.65;9.52;;;;;;;;;;4986400;28;20449;-81
2022/10/01 05:55:50;;;;;;;10.45;9.45;;;;;;;;;;4985482;28;20430;-82
2022/10/01 05:58:17;;;;;;;10.82;9.77;;;;;;;;;;4984007;28;20802;-81
2022/10/01 06:00:43;;;;;;;10.95;9.85;;;;;;;;;;4987926;28;20513;-82
2022/10/01 06:03:12;;;;;;;10.25;9.15;;;;;;;;;;4988432;28;20427;-81
2022/10/01 06:05:38;;;;;;;9.80;8.73;;;;;;;;;;4987724;28;20425;-81
2022/10/01 06:08:05;;;;;;;8.80;7.90;;;;;;;;;;4988132;28;20520;-81
2022/10/01 06:10:31;;;;;;;9.40;8.40;;;;;;;;;;5001412;28;20446;-81
2022/10/01 06:13:00;;;;;;;9.73;7.57;;;;;;;;;;4986912;28;20418;-82
2022/10/01 06:15:28;;;;;;;10.43;7.85;;;;;;;;;;4985676;28;20426;-81
2022/10/01 06:17:55;;;;;;;8.20;7.35;;;;;;;;;;4986744;28;20409;-82
2022/10/01 06:20:22;;;;;;;8.00;7.30;;;;;;;;;;4987788;28;20459;-81
2022/10/01 06:22:53;;;;;;;8.20;7.40;;;;;;;;;;4988687;28;20456;-81
2022/10/01 06:25:20;;;;;;;9.43;7.80;;;;;;;;;;4986338;28;20466;-83
2022/10/01 06:27:50;;;;;;;7.50;6.75;;;;;;;;;;4986876;28;20480;-80
2022/10/01 06:30:20;;;;;;;7.65;6.90;;;;;;;;;;4984492;28;20414;-79
2022/10/01 06:32:47;;;;;;;7.68;6.88;;;;;;;;;;4988118;28;20423;-82
2022/10/01 06:35:13;;;;;;;7.90;6.70;;;;;;;;;;4984737;28;20420;-83
2022/10/01 06:37:39;;;;;;;7.30;6.60;;;;;;;;;;4980771;28;20420;-83
2022/10/01 06:40:07;;;;;;;8.27;7.47;;;;;;;;;;4986528;28;20857;-82
2022/10/01 06:42:33;;;;;;;7.05;6.40;;;;;;;;;;4988893;28;20477;-83
2022/10/01 06:44:59;;;;;;;7.30;6.60;;;;;;;;;;4986256;28;20426;-80
2022/10/01 06:47:27;;;;;;;7.00;6.30;;;;;;;;;;4986029;28;20420;-81
2022/10/01 06:49:53;;;;;;;7.20;6.50;;;;;;;;;;4986748;28;20420;-80
2022/10/01 06:55:04;;;;;;;7.00;6.30;;;;;;;;;;4989205;28;20800;-81
2022/10/01 06:57:32;;;;;;;7.00;6.30;;;;;;;;;;4989820;28;20423;-82
2022/10/01 06:59:59;;;;;;;7.00;6.30;;;;;;;;;;4989394;28;20435;-83
2022/10/01 07:02:28;;;;;;;7.03;6.32;;;;;;;;;;4987916;28;20415;-82
2022/10/01 07:04:57;;;;;;;6.95;6.35;;;;;;;;;;4985519;28;20906;-82
2022/10/01 07:07:24;;;;;;;7.00;6.40;;;;;;;;;;4988451;28;20804;-82
2022/10/01 07:09:50;;;;;;;7.50;6.90;;;;;;;;;;4971308;28;20972;-82
2022/10/01 07:12:17;;;;;;;7.40;6.80;;;;;;;;;;4988389;28;20418;-83
2022/10/01 07:14:43;;;;;;;7.10;6.50;;;;;;;;;;4989445;28;20426;-83
2022/10/01 07:17:10;;;;;;;7.32;6.70;;;;;;;;;;4984884;28;20423;-83
2022/10/01 07:19:37;;;;;;;6.90;6.30;;;;;;;;;;4986993;28;20430;-82
2022/10/01 07:22:04;;;;;;;7.75;7.00;;;;;;;;;;4986765;28;20490;-82
2022/10/01 07:24:30;;;;;;;6.57;5.97;;;;;;;;;;4988689;28;20430;-82
2022/10/01 07:26:56;;;;;;;6.80;6.20;;;;;;;;;;4987836;28;20425;-82
2022/10/01 07:29:23;;;;;;;6.57;6.07;;;;;;;;;;4987282;28;20451;-83
2022/10/01 07:31:50;;;;;;;7.70;7.00;;;;;;;;;;4987117;28;20427;-83
2022/10/01 07:34:16;;;;;;;7.78;7.07;;;;;;;;;;4989789;28;20849;-82
2022/10/01 07:36:44;;;;;;;9.10;7.70;;;;;;;;;;4989035;28;20406;-81
2022/10/01 07:39:11;;;;;;;8.30;7.60;;;;;;;;;;4990276;28;20475;-82
2022/10/01 07:41:37;;;;;;;9.10;8.30;;;;;;;;;;4989591;28;20422;-82
2022/10/01 07:44:04;;;;;;;10.20;9.20;;;;;;;;;;4989618;28;20448;-82
2022/10/01 07:46:32;;;;;;;10.52;9.73;;;;;;;;;;4988675;28;20474;-83
2022/10/01 07:48:58;;;;;;;10.80;9.70;;;;;;;;;;4988712;28;20426;-82
2022/10/01 07:51:27;;;;;;;10.65;9.85;;;;;;;;;;4990095;28;20419;-82
2022/10/01 07:53:54;;;;;;;11.50;10.50;;;;;;;;;;4989316;28;20459;-82
2022/10/01 07:56:21;;;;;;;11.47;10.27;;;;;;;;;;4987682;28;20416;-82
2022/10/01 07:58:47;;;;;;;12.93;11.73;;;;;;;;;;4991025;28;20415;-82
2022/10/01 08:01:14;;;;;;;12.60;11.60;;;;;;;;;;4987671;28;20420;-83
2022/10/01 08:03:40;;;;;;;13.27;12.18;;;;;;;;;;4990673;28;20436;-82
2022/10/01 08:06:08;;;;;;;14.43;12.93;;;;;;;;;;4986217;28;20424;-83
2022/10/01 08:08:34;;;;;;;15.05;13.00;;;;;;;;;;4987209;28;20514;-83
2022/10/01 08:11:03;;;;;;;14.32;13.07;;;;;;;;;;4987488;28;20440;-83
2022/10/01 08:13:29;;;;;;;15.93;14.52;;;;;;;;;;4988270;28;20937;-82
2022/10/01 08:15:56;;;;;;;16.48;15.07;;;;;;;;;;4988990;28;20416;-82
2022/10/01 08:18:23;;;;;;;15.52;14.13;;;;;;;;;;4986809;28;20771;-83
2022/10/01 08:20:51;;;;;;;15.83;14.43;;;;;;;;;;4988463;28;20949;-82
2022/10/01 08:23:18;;;;;;;15.25;13.90;;;;;;;;;;4987608;28;20435;-82
2022/10/01 08:25:46;;;;;;;14.75;13.35;;;;;;;;;;4986751;28;20424;-82
2022/10/01 08:28:15;;;;;;;15.10;13.70;;;;;;;;;;4984942;28;20464;-81
2022/10/01 08:30:41;;;;;;;15.40;13.85;;;;;;;;;;4987259;28;20416;-83
2022/10/01 08:33:10;;;;;;;14.80;13.60;;;;;;;;;;4986181;28;20419;-83
2022/10/01 08:35:37;;;;;;;15.40;13.90;;;;;;;;;;4985760;28;20492;-83
2022/10/01 08:38:05;;;;;;;15.70;14.40;;;;;;;;;;5019138;28;20429;-83
2022/10/01 08:40:35;;;;;;;14.70;13.40;;;;;;;;;;4985490;28;20519;-82
2022/10/01 08:43:05;;;;;;;15.40;14.00;;;;;;;;;;4985726;28;20427;-83
2022/10/01 08:45:36;;;;;;;15.18;13.77;;;;;;;;;;4987971;28;20426;-80
2022/10/01 08:48:05;;;;;;;14.90;13.50;;;;;;;;;;4987268;28;20808;-81
2022/10/01 08:50:37;;;;;;;14.93;13.63;;;;;;;;;;4987885;28;20797;-81
2022/10/01 08:53:04;;;;;;;13.70;12.50;;;;;;;;;;4987080;28;20454;-80
2022/10/01 08:55:35;;;;;;;13.63;12.43;;;;;;;;;;4986943;28;20433;-81
2022/10/01 08:58:02;;;;;;;13.75;12.38;;;;;;;;;;4987303;28;20424;-81
2022/10/01 09:00:30;;;;;;;12.10;10.85;;;;;;;;;;4988215;28;20430;-81
2022/10/01 09:02:59;;;;;;;12.77;11.52;;;;;;;;;;4987467;28;20453;-81
2022/10/01 09:05:30;;;;;;;13.00;11.67;;;;;;;;;;4985847;28;20424;-81
2022/10/01 09:08:05;;;;;;;12.73;11.55;;;;;;;;;;4986064;28;20422;-82
2022/10/01 09:10:41;;;;;;;12.23;10.52;;;;;;;;;;4985477;28;20414;-81
2022/10/01 09:13:22;;;;;;;12.38;10.70;;;;;;;;;;4986008;28;20431;-83
2022/10/01 09:15:51;;;;;;;13.70;10.33;;;;;;;;;;4982464;28;20432;-83
2022/10/01 09:18:25;;;;;;;11.88;10.27;;;;;;;;;;4984268;28;20425;-83
2022/10/01 09:20:55;;;;;;;14.90;11.90;;;;;;;;;;4983525;28;20439;-82
2022/10/01 09:23:26;;;;;;;13.30;11.40;;;;;;;;;;4983617;28;20936;-83
2022/10/01 09:25:52;;;;;;;15.27;11.23;;;;;;;;;;4984716;28;20431;-81
2022/10/01 09:28:20;;;;;;;12.37;11.07;;;;;;;;;;4983506;28;20422;-83
2022/10/01 09:30:51;;;;;;;12.20;10.15;;;;;;;;;;4985516;28;20578;-81
2022/10/01 09:33:19;;;;;;;11.73;9.57;;;;;;;;;;4984460;28;20784;-83
2022/10/01 09:35:50;;;;;;;9.63;8.73;;;;;;;;;;4983745;28;20426;-82
2022/10/01 09:38:20;;;;;;;9.80;8.90;;;;;;;;;;4985130;28;20458;-84
2022/10/01 09:40:52;;;;;;;10.38;8.43;;;;;;;;;;5016265;28;20459;-83
2022/10/01 09:43:21;;;;;;;9.98;8.50;;;;;;;;;;4985704;28;20819;-83
2022/10/01 09:45:48;;;;;;;9.32;8.43;;;;;;;;;;4985053;28;20469;-83
2022/10/01 09:48:18;;;;;;;11.52;9.05;;;;;;;;;;4981242;28;20426;-83
2022/10/01 09:50:49;;;;;;;12.90;8.23;;;;;;;;;;5014387;28;20449;-83
2022/10/01 09:53:18;;;;;;;15.35;8.88;;;;;;;;;;4983585;28;20520;-83
2022/10/01 09:55:45;;;;;;;12.13;7.97;;;;;;;;;;4980582;28;20432;-83
2022/10/01 09:58:13;;;;;;;13.32;7.95;;;;;;;;;;4983219;28;21369;-81
2022/10/01 10:00:40;;;;;;;15.13;8.07;;;;;;;;;;4981177;28;20436;-82
2022/10/01 10:03:07;;;;;;;14.55;7.57;;;;;;;;;;4984371;28;20427;-83
2022/10/01 10:05:40;;;;;;;10.43;6.78;;;;;;;;;;4981166;28;20425;-83
2022/10/01 10:08:11;;;;;;;9.80;7.20;;;;;;;;;;4982369;28;20961;-81
2022/10/01 10:10:39;;;;;;;12.80;6.95;;;;;;;;;;4981375;28;20786;-82
2022/10/01 10:13:25;;;;;;;14.52;7.72;;;;;;;;;;4983428;28;20422;-83
2022/10/01 10:15:52;;;;;;;8.77;6.90;;;;;;;;;;4984715;28;20979;-81
2022/10/01 10:18:24;;;;;;;12.18;7.20;;;;;;;;;;4982646;28;20442;-81
2022/10/01 10:20:52;;;;;;;8.75;5.82;;;;;;;;;;4981560;28;20711;-82
2022/10/01 10:23:21;;;;;;;10.48;4.97;;;;;;;;;;4982061;28;20442;-82
2022/10/01 10:25:54;;;;;;;7.65;4.60;;;;;;;;;;4981061;28;20426;-83
2022/10/01 10:28:22;;;;;;;7.95;4.30;;;;;;;;;;4982359;28;20419;-83
2022/10/01 10:30:49;;;;;;;8.50;4.40;;;;;;;;;;4986867;28;20422;-82
2022/10/01 10:33:16;;;;;;;10.77;5.57;;;;;;;;;;4985512;28;20455;-82
2022/10/01 10:35:43;;;;;;;7.30;3.90;;;;;;;;;;4987197;28;20784;-84
2022/10/01 10:38:16;;;;;;;9.97;4.13;;;;;;;;;;4987143;28;20420;-83
2022/10/01 10:40:45;;;;;;;7.70;3.90;;;;;;;;;;4989772;28;20438;-83
2022/10/01 10:43:17;;;;;;;8.83;4.10;;;;;;;;;;4984734;28;20435;-82
2022/10/01 10:45:45;;;;;;;7.60;3.22;;;;;;;;;;4990241;28;20418;-82
2022/10/01 10:48:15;;;;;;;11.98;4.60;;;;;;;;;;4988283;28;20426;-82
2022/10/01 10:50:43;;;;;;;7.40;3.00;;;;;;;;;;4987010;28;20509;-82
2022/10/01 10:53:21;;;;;;;9.05;3.78;;;;;;;;;;4967214;28;20894;-82
2022/10/01 10:56:02;;;;;;;11.70;3.20;;;;;;;;;;4969566;28;20444;-80
2022/10/01 10:58:30;;;;;;;8.87;3.03;;;;;;;;;;4965698;28;20416;-82
2022/10/01 11:01:00;;;;;;;9.80;3.00;;;;;;;;;;4968002;28;20534;-83
2022/10/01 11:03:28;;;;;;;6.63;2.40;;;;;;;;;;4968327;28;20440;-80
2022/10/01 11:05:56;;;;;;;8.50;3.13;;;;;;;;;;4969733;28;20424;-82
2022/10/01 11:08:24;;;;;;;6.90;2.70;;;;;;;;;;4968588;28;20472;-83
2022/10/01 11:10:56;;;;;;;7.38;2.53;;;;;;;;;;4965087;28;20418;-83
2022/10/01 11:13:36;;;;;;;7.40;2.80;;;;;;;;;;4967526;28;20426;-83
2022/10/01 11:16:13;;;;;;;10.98;2.67;;;;;;;;;;4970164;28;20428;-82
2022/10/01 11:18:48;;;;;;;6.55;2.50;;;;;;;;;;4987057;28;20431;-80
2022/10/01 11:21:23;;;;;;;8.75;2.60;;;;;;;;;;4991227;28;20756;-83
2022/10/01 11:23:57;;;;;;;10.60;2.90;;;;;;;;;;4986367;28;20468;-82
2022/10/01 11:26:28;;;;;;;7.60;2.60;;;;;;;;;;4988217;28;20428;-81
2022/10/01 11:29:03;;;;;;;10.13;3.10;;;;;;;;;;4988410;28;20426;-81
2022/10/01 11:31:38;;;;;;;6.32;2.08;;;;;;;;;;4986389;28;20424;-81
2022/10/01 11:34:12;;;;;;;5.30;2.20;;;;;;;;;;4986225;28;20459;-80
2022/10/01 11:36:41;;;;;;;8.25;2.40;;;;;;;;;;4988222;28;20950;-81
2022/10/01 11:39:10;;;;;;;8.52;3.30;;;;;;;;;;4990098;28;20423;-82
2022/10/01 11:41:38;;;;;;;7.33;2.80;;;;;;;;;;4985755;28;20420;-81
2022/10/01 11:44:09;;;;;;;7.90;2.70;;;;;;;;;;4988327;28;20433;-83
2022/10/01 11:46:41;;;;;;;11.05;3.20;;;;;;;;;;4984303;28;20433;-82
2022/10/01 11:49:21;;;;;;;9.25;3.20;;;;;;;;;;4988557;28;20424;-82
2022/10/01 11:51:50;;;;;;;9.25;3.10;;;;;;;;;;4987737;28;20430;-80
2022/10/01 11:54:19;;;;;;;5.78;2.47;;;;;;;;;;4986708;28;20492;-80
2022/10/01 11:59:35;;;;;;;9.25;2.60;;;;;;;;;;4985141;28;20411;-79
2022/10/01 12:02:09;;;;;;;8.05;2.80;;;;;;;;;;4989145;28;20424;-80
2022/10/01 12:04:37;;;;;;;8.60;2.80;;;;;;;;;;4987186;28;20418;-83
2022/10/01 12:07:06;;;;;;;11.07;2.85;;;;;;;;;;4989488;28;20454;-80
2022/10/01 12:09:37;;;;;;;9.82;3.85;;;;;;;;;;4986777;28;20439;-80
2022/10/01 12:12:05;;;;;;;10.18;3.95;;;;;;;;;;4985743;28;20433;-80
2022/10/01 12:14:36;;;;;;;9.23;3.65;;;;;;;;;;4986956;28;20781;-82
2022/10/01 12:17:08;;;;;;;6.30;3.13;;;;;;;;;;4984446;28;20943;-83
2022/10/01 12:19:36;;;;;;;8.95;2.25;;;;;;;;;;4986491;28;21155;-83
2022/10/01 12:22:07;;;;;;;5.13;2.13;;;;;;;;;;4984709;28;20418;-83
2022/10/01 12:24:36;;;;;;;4.57;1.60;;;;;;;;;;4983318;28;20786;-82
2022/10/01 12:27:09;;;;;;;3.90;1.40;;;;;;;;;;4983665;28;20441;-81
2022/10/01 12:29:42;;;;;;;2.30;1.20;;;;;;;;;;4983497;28;20436;-80
2022/10/01 12:32:12;;;;;;;3.45;1.35;;;;;;;;;;4984308;28;20420;-83
2022/10/01 12:34:42;;;;;;;4.00;1.40;;;;;;;;;;4983855;28;20416;-83
2022/10/01 12:37:14;;;;;;;3.10;1.10;;;;;;;;;;4984600;28;20449;-83
2022/10/01 12:39:45;;;;;;;4.50;1.40;;;;;;;;;;4984717;28;20480;-84
2022/10/01 12:42:28;;;;;;;4.05;1.80;;;;;;;;;;4984471;28;20418;-80
2022/10/01 12:45:00;;;;;;;3.90;2.50;;;;;;;;;;4984625;28;20809;-83
2022/10/01 12:47:39;;;;;;;4.18;2.45;;;;;;;;;;4984051;28;20506;-83
2022/10/01 12:50:20;;;;;;;6.55;4.32;;;;;;;;;;4985610;28;20422;-83
2022/10/01 12:52:52;;;;;;;4.70;2.80;;;;;;;;;;4982487;28;20451;-83
2022/10/01 12:55:28;;;;;;;3.50;2.08;;;;;;;;;;4984096;28;20451;-83
2022/10/01 12:57:58;;;;;;;3.90;2.97;;;;;;;;;;4980887;28;20939;-83
2022/10/01 13:00:26;;;;;;;3.20;1.83;;;;;;;;;;4987432;28;20429;-84
2022/10/01 13:03:07;;;;;;;2.50;1.30;;;;;;;;;;4984483;28;20418;-84
2022/10/01 13:05:42;;;;;;;4.10;1.10;;;;;;;;;;4983249;28;20419;-83
2022/10/01 13:08:19;;;;;;;1.60;1.00;;;;;;;;;;4985316;28;20421;-83
2022/10/01 13:10:56;;;;;;;1.30;1.00;;;;;;;;;;4982977;28;20414;-81
2022/10/01 13:13:24;;;;;;;2.70;1.40;;;;;;;;;;4984484;28;20416;-81
2022/10/01 13:15:55;;;;;;;2.63;1.70;;;;;;;;;;4985998;28;20451;-81
2022/10/01 13:18:27;;;;;;;3.70;2.10;;;;;;;;;;4985404;28;20426;-81
2022/10/01 13:20:59;;;;;;;2.70;1.15;;;;;;;;;;4984105;28;20816;-82
2022/10/01 13:23:28;;;;;;;2.40;1.20;;;;;;;;;;4982559;28;20431;-82
2022/10/01 13:26:03;;;;;;;2.17;1.60;;;;;;;;;;4982774;28;20431;-81
2022/10/01 13:28:35;;;;;;;2.90;1.60;;;;;;;;;;4985623;28;20422;-80
2022/10/01 13:31:10;;;;;;;2.30;1.60;;;;;;;;;;4984895;28;20420;-81
2022/10/01 13:33:36;;;;;;;3.47;1.70;;;;;;;;;;4985950;28;20424;-82
2022/10/01 13:36:04;;;;;;;4.47;1.80;;;;;;;;;;4986783;28;20411;-81
2022/10/01 13:38:41;;;;;;;2.80;1.60;;;;;;;;;;4984713;28;20438;-82
2022/10/01 13:41:16;;;;;;;2.90;1.92;;;;;;;;;;4982025;28;20475;-82
2022/10/01 13:43:47;;;;;;;3.30;2.10;;;;;;;;;;4984990;28;20422;-81
2022/10/01 13:46:14;;;;;;;3.10;1.70;;;;;;;;;;4985330;28;20418;-81
2022/10/01 13:48:45;;;;;;;3.85;2.28;;;;;;;;;;4982137;28;20500;-81
2022/10/01 13:51:13;;;;;;;4.30;1.90;;;;;;;;;;4980210;28;20432;-81
2022/10/01 13:53:48;;;;;;;3.70;1.63;;;;;;;;;;4986287;28;20416;-81
2022/10/01 13:56:26;;;;;;;3.05;1.75;;;;;;;;;;4981320;28;20914;-81
2022/10/01 13:58:53;;;;;;;4.60;2.00;;;;;;;;;;5002753;28;20422;-81
2022/10/01 14:01:40;;;;;;;3.65;1.80;;;;;;;;;;4982012;28;20416;-82
2022/10/01 14:04:14;;;;;;;4.43;3.10;;;;;;;;;;4981560;28;20436;-82
2022/10/01 14:06:45;;;;;;;3.88;2.20;;;;;;;;;;4982968;28;20425;-80
2022/10/01 14:09:13;;;;;;;3.23;1.93;;;;;;;;;;4983604;28;20420;-82
2022/10/01 14:17:13;;;;;;;3.00;1.70;;;;;;;;;;4983555;28;20478;-81
2022/10/01 14:19:44;;;;;;;2.58;1.60;;;;;;;;;;4983805;28;20418;-81
2022/10/01 14:22:22;;;;;;;5.53;2.40;;;;;;;;;;4980119;28;20423;-82
2022/10/01 14:24:56;;;;;;;1.80;1.30;;;;;;;;;;4981011;28;20424;-82
2022/10/01 14:27:26;;;;;;;4.32;2.20;;;;;;;;;;4978862;28;20593;-82
2022/10/01 14:30:01;;;;;;;3.13;1.60;;;;;;;;;;4985933;28;20415;-83
2022/10/01 14:32:34;;;;;;;4.20;1.70;;;;;;;;;;4985204;28;20427;-83
2022/10/01 14:35:04;;;;;;;2.47;1.50;;;;;;;;;;4984020;28;20427;-83
2022/10/01 14:37:37;;;;;;;6.55;1.55;;;;;;;;;;4983387;28;20418;-83
2022/10/01 14:40:12;;;;;;;4.75;1.50;;;;;;;;;;4985426;28;20832;-82
2022/10/01 14:42:38;;;;;;;6.57;1.50;;;;;;;;;;4983327;28;20452;-83
2022/10/01 14:45:14;;;;;;;4.05;1.17;;;;;;;;;;4985945;28;20417;-82
2022/10/01 14:47:40;;;;;;;4.03;1.50;;;;;;;;;;4980782;28;20434;-82
2022/10/01 14:50:11;;;;;;;3.63;1.57;;;;;;;;;;4982475;28;20420;-82
2022/10/01 14:52:41;;;;;;;7.03;1.60;;;;;;;;;;4983431;28;20432;-82
2022/10/01 14:55:12;;;;;;;4.60;1.40;;;;;;;;;;4986048;28;20429;-81
2022/10/01 14:57:39;;;;;;;5.10;1.83;;;;;;;;;;4985119;28;21033;-82
2022/10/01 15:00:09;;;;;;;5.13;1.50;;;;;;;;;;4987016;28;20449;-80
2022/10/01 15:02:44;;;;;;;6.55;2.00;;;;;;;;;;4984099;28;20932;-82